< < Back
Terminal Aerodrome Forecast


Current Version              Previous Versions:   1  2  3  4  5  6  7  8  9  

Terminal Aerodrome Forecast

376
FTUS42 KFFC 192321
TAFMCN
TAF
KMCN 192321Z 2000/2024 VRB03KT P6SM BKN120
     FM200130 01003KT P6SM VCSH SCT040 OVC100
     FM200330 03003KT 6SM -RA BR FEW025 OVC040
     FM200800 03003KT 5SM -RA BR OVC025
     FM201200 05004KT 4SM -RA BR OVC015
     FM201700 06005KT P6SM VCSH OVC025
     FM202200 07004KT P6SM BKN035=



Latest METAR

610
SAUS80 KWBC 190000 RRF
MTRMCN
METAR KMCN 192353Z 00000KT 10SM CLR 10/04 A3012 RMK AO2 SLP200 T01000044
10156 20100 53011


USA.gov is the U.S. government's official web portal to all federal, state and local government web resources and services.